aviador You're here:

KBIL Decoded Metar

BILLINGS in MT, USA
Report Time2017-09-24 00:53:00
UTC Time2017-09-24 01:30:19
Flight Rules vfr VFR
Wind030° at 03 kt
W.Decomp.*RWY 07: 1.8 kt HW 2.4 kt LCW
RWY 10: 0.3 kt HW 3 kt LCW
W.Rank030° ranks 9
Current wind is below 030° avg. (8.1)
Visibility9999 m
Phenomena:N/A
Clouds:Few 015 Hf
Overcast 034 Hf
Expected CloudBase > 1,200 ft AGL from Temp-Dew spread
Ceiling3,400 ft
Temp07°C (ISA -1)
Dew Point04°C (81% RH)
AAT4.6°C
QNH1019 hPa
Density Alt3,392 ft
Elevation3,579 ft
Report Wrong Elevation
Raw Report
KBIL 240053Z 03003KT 10SM FEW015 OVC034 07/04 A3010 RMK AO2 SLP205
T00720039=

Extra information for KBIL:More info

Metar Taf Metar & Taf Last 4 Metars F.Rules Stats Wind Profile Meteogram Temp Stats Airport Information Weather charts Add Link Nearby VenuesMetar ALERT Operation Metar Decoded Social comments

AIRNAV info for KBIL